sensor_id;sensor_type;location;lat;lon;timestamp;P1;durP1;ratioP1;P2;durP2;ratioP2
8628;SDS011;4352;49.404;11.092;2023-01-19T00:01:14;20.40;;;11.47;;
8628;SDS011;4352;49.404;11.092;2023-01-19T00:03:41;21.90;;;11.73;;
8628;SDS011;4352;49.404;11.092;2023-01-19T00:06:08;20.53;;;10.83;;
8628;SDS011;4352;49.404;11.092;2023-01-19T00:08:36;19.90;;;10.80;;
8628;SDS011;4352;49.404;11.092;2023-01-19T00:11:03;20.40;;;11.33;;
8628;SDS011;4352;49.404;11.092;2023-01-19T00:13:30;23.47;;;11.43;;
8628;SDS011;4352;49.404;11.092;2023-01-19T00:15:59;18.10;;;10.73;;
8628;SDS011;4352;49.404;11.092;2023-01-19T00:18:26;21.80;;;11.63;;
8628;SDS011;4352;49.404;11.092;2023-01-19T00:20:53;21.87;;;11.30;;
8628;SDS011;4352;49.404;11.092;2023-01-19T00:23:20;21.03;;;11.73;;
8628;SDS011;4352;49.404;11.092;2023-01-19T00:25:47;24.70;;;11.73;;
8628;SDS011;4352;49.404;11.092;2023-01-19T00:28:15;24.73;;;11.87;;
8628;SDS011;4352;49.404;11.092;2023-01-19T00:30:43;19.50;;;11.57;;
8628;SDS011;4352;49.404;11.092;2023-01-19T00:33:11;22.43;;;11.73;;
8628;SDS011;4352;49.404;11.092;2023-01-19T00:35:39;24.03;;;12.07;;
8628;SDS011;4352;49.404;11.092;2023-01-19T00:38:07;24.93;;;12.20;;
8628;SDS011;4352;49.404;11.092;2023-01-19T00:40:34;23.33;;;12.93;;
8628;SDS011;4352;49.404;11.092;2023-01-19T00:43:01;29.13;;;12.77;;
8628;SDS011;4352;49.404;11.092;2023-01-19T00:45:29;26.20;;;12.93;;
8628;SDS011;4352;49.404;11.092;2023-01-19T00:47:56;22.07;;;12.10;;
8628;SDS011;4352;49.404;11.092;2023-01-19T00:50:25;23.87;;;12.33;;
8628;SDS011;4352;49.404;11.092;2023-01-19T00:52:53;24.00;;;12.27;;
8628;SDS011;4352;49.404;11.092;2023-01-19T00:55:21;26.90;;;12.57;;
8628;SDS011;4352;49.404;11.092;2023-01-19T00:57:48;41.83;;;13.27;;
8628;SDS011;4352;49.404;11.092;2023-01-19T01:00:16;27.67;;;14.50;;
8628;SDS011;4352;49.404;11.092;2023-01-19T01:02:43;31.00;;;15.27;;
8628;SDS011;4352;49.404;11.092;2023-01-19T01:05:10;31.70;;;15.03;;
8628;SDS011;4352;49.404;11.092;2023-01-19T01:07:39;31.13;;;15.47;;
8628;SDS011;4352;49.404;11.092;2023-01-19T01:10:09;33.13;;;14.07;;
8628;SDS011;4352;49.404;11.092;2023-01-19T01:12:36;33.93;;;15.63;;
8628;SDS011;4352;49.404;11.092;2023-01-19T01:15:04;32.70;;;15.53;;
8628;SDS011;4352;49.404;11.092;2023-01-19T01:17:31;30.53;;;15.47;;
8628;SDS011;4352;49.404;11.092;2023-01-19T01:19:59;27.10;;;15.00;;
8628;SDS011;4352;49.404;11.092;2023-01-19T01:22:26;28.53;;;14.40;;
8628;SDS011;4352;49.404;11.092;2023-01-19T01:24:54;28.57;;;14.90;;
8628;SDS011;4352;49.404;11.092;2023-01-19T01:27:21;32.77;;;15.07;;
8628;SDS011;4352;49.404;11.092;2023-01-19T01:29:48;29.83;;;14.37;;
8628;SDS011;4352;49.404;11.092;2023-01-19T01:32:15;28.27;;;14.33;;
8628;SDS011;4352;49.404;11.092;2023-01-19T01:34:42;30.17;;;14.97;;
8628;SDS011;4352;49.404;11.092;2023-01-19T01:37:09;28.10;;;14.20;;
8628;SDS011;4352;49.404;11.092;2023-01-19T01:39:36;29.73;;;15.00;;
8628;SDS011;4352;49.404;11.092;2023-01-19T01:42:09;32.07;;;14.60;;
8628;SDS011;4352;49.404;11.092;2023-01-19T01:44:44;25.33;;;13.70;;
8628;SDS011;4352;49.404;11.092;2023-01-19T01:47:15;26.40;;;13.27;;
8628;SDS011;4352;49.404;11.092;2023-01-19T01:49:44;25.77;;;13.53;;
8628;SDS011;4352;49.404;11.092;2023-01-19T01:52:11;29.57;;;13.80;;
8628;SDS011;4352;49.404;11.092;2023-01-19T01:54:38;28.10;;;14.30;;
8628;SDS011;4352;49.404;11.092;2023-01-19T01:57:06;25.37;;;13.63;;
8628;SDS011;4352;49.404;11.092;2023-01-19T01:59:38;26.90;;;14.20;;
8628;SDS011;4352;49.404;11.092;2023-01-19T02:02:06;25.73;;;14.20;;
8628;SDS011;4352;49.404;11.092;2023-01-19T02:04:53;31.90;;;13.50;;
8628;SDS011;4352;49.404;11.092;2023-01-19T02:07:22;31.30;;;15.00;;
8628;SDS011;4352;49.404;11.092;2023-01-19T02:10:09;31.77;;;15.73;;
8628;SDS011;4352;49.404;11.092;2023-01-19T02:12:54;30.60;;;14.23;;
8628;SDS011;4352;49.404;11.092;2023-01-19T02:15:40;29.43;;;15.20;;
8628;SDS011;4352;49.404;11.092;2023-01-19T02:18:07;28.10;;;14.53;;
8628;SDS011;4352;49.404;11.092;2023-01-19T02:20:34;28.13;;;14.67;;
8628;SDS011;4352;49.404;11.092;2023-01-19T02:23:04;26.67;;;13.57;;
8628;SDS011;4352;49.404;11.092;2023-01-19T02:25:34;28.03;;;13.90;;
8628;SDS011;4352;49.404;11.092;2023-01-19T02:28:01;29.53;;;14.83;;
8628;SDS011;4352;49.404;11.092;2023-01-19T02:30:28;24.23;;;13.47;;
8628;SDS011;4352;49.404;11.092;2023-01-19T02:32:56;26.67;;;14.53;;
8628;SDS011;4352;49.404;11.092;2023-01-19T02:35:24;25.23;;;13.87;;
8628;SDS011;4352;49.404;11.092;2023-01-19T02:37:51;33.73;;;15.70;;
8628;SDS011;4352;49.404;11.092;2023-01-19T02:40:19;30.57;;;15.33;;
8628;SDS011;4352;49.404;11.092;2023-01-19T02:42:50;28.33;;;14.53;;
8628;SDS011;4352;49.404;11.092;2023-01-19T02:45:19;27.27;;;13.53;;
8628;SDS011;4352;49.404;11.092;2023-01-19T02:47:48;26.70;;;13.97;;
8628;SDS011;4352;49.404;11.092;2023-01-19T02:50:34;28.50;;;14.57;;
8628;SDS011;4352;49.404;11.092;2023-01-19T02:53:04;30.30;;;13.77;;
8628;SDS011;4352;49.404;11.092;2023-01-19T02:55:32;24.70;;;13.57;;
8628;SDS011;4352;49.404;11.092;2023-01-19T02:58:02;29.77;;;14.30;;
8628;SDS011;4352;49.404;11.092;2023-01-19T03:00:32;27.20;;;13.97;;
8628;SDS011;4352;49.404;11.092;2023-01-19T03:03:07;33.37;;;14.20;;
8628;SDS011;4352;49.404;11.092;2023-01-19T03:05:45;28.03;;;14.23;;
8628;SDS011;4352;49.404;11.092;2023-01-19T03:08:15;29.87;;;14.57;;
8628;SDS011;4352;49.404;11.092;2023-01-19T03:10:44;29.33;;;14.17;;
8628;SDS011;4352;49.404;11.092;2023-01-19T03:13:15;28.33;;;14.37;;
8628;SDS011;4352;49.404;11.092;2023-01-19T03:15:46;27.67;;;14.50;;
8628;SDS011;4352;49.404;11.092;2023-01-19T03:18:15;31.27;;;15.13;;
8628;SDS011;4352;49.404;11.092;2023-01-19T03:20:42;33.77;;;15.27;;
8628;SDS011;4352;49.404;11.092;2023-01-19T03:23:10;26.37;;;14.63;;
8628;SDS011;4352;49.404;11.092;2023-01-19T03:25:40;29.77;;;14.40;;
8628;SDS011;4352;49.404;11.092;2023-01-19T03:28:07;31.10;;;15.37;;
8628;SDS011;4352;49.404;11.092;2023-01-19T03:30:45;29.13;;;15.73;;
8628;SDS011;4352;49.404;11.092;2023-01-19T03:33:14;29.40;;;15.57;;
8628;SDS011;4352;49.404;11.092;2023-01-19T03:35:42;30.17;;;15.40;;
8628;SDS011;4352;49.404;11.092;2023-01-19T03:38:12;29.60;;;16.10;;
8628;SDS011;4352;49.404;11.092;2023-01-19T03:40:40;31.63;;;15.77;;
8628;SDS011;4352;49.404;11.092;2023-01-19T03:43:07;28.57;;;15.10;;
8628;SDS011;4352;49.404;11.092;2023-01-19T03:45:37;28.77;;;15.57;;
8628;SDS011;4352;49.404;11.092;2023-01-19T03:48:04;35.17;;;16.73;;
8628;SDS011;4352;49.404;11.092;2023-01-19T03:50:32;32.60;;;15.67;;
8628;SDS011;4352;49.404;11.092;2023-01-19T03:52:59;35.90;;;16.57;;
8628;SDS011;4352;49.404;11.092;2023-01-19T03:55:27;29.47;;;16.07;;
8628;SDS011;4352;49.404;11.092;2023-01-19T03:57:55;31.70;;;16.90;;
8628;SDS011;4352;49.404;11.092;2023-01-19T04:00:22;36.13;;;17.27;;
8628;SDS011;4352;49.404;11.092;2023-01-19T04:02:51;35.27;;;16.90;;
8628;SDS011;4352;49.404;11.092;2023-01-19T04:05:19;37.43;;;17.00;;
8628;SDS011;4352;49.404;11.092;2023-01-19T04:07:46;31.07;;;16.37;;
8628;SDS011;4352;49.404;11.092;2023-01-19T04:10:14;33.17;;;16.40;;
8628;SDS011;4352;49.404;11.092;2023-01-19T04:12:41;35.90;;;17.50;;
8628;SDS011;4352;49.404;11.092;2023-01-19T04:15:08;36.77;;;16.80;;
8628;SDS011;4352;49.404;11.092;2023-01-19T04:17:35;32.93;;;16.90;;
8628;SDS011;4352;49.404;11.092;2023-01-19T04:20:05;40.23;;;17.73;;
8628;SDS011;4352;49.404;11.092;2023-01-19T04:22:32;39.17;;;17.43;;
8628;SDS011;4352;49.404;11.092;2023-01-19T04:24:59;32.10;;;16.13;;
8628;SDS011;4352;49.404;11.092;2023-01-19T04:27:27;36.07;;;18.03;;
8628;SDS011;4352;49.404;11.092;2023-01-19T04:29:54;32.40;;;16.83;;
8628;SDS011;4352;49.404;11.092;2023-01-19T04:32:21;30.73;;;16.30;;
8628;SDS011;4352;49.404;11.092;2023-01-19T04:34:48;31.93;;;16.43;;
8628;SDS011;4352;49.404;11.092;2023-01-19T04:37:16;36.47;;;15.50;;
8628;SDS011;4352;49.404;11.092;2023-01-19T04:39:43;30.53;;;16.13;;
8628;SDS011;4352;49.404;11.092;2023-01-19T04:42:11;31.53;;;16.27;;
8628;SDS011;4352;49.404;11.092;2023-01-19T04:44:38;28.73;;;15.60;;
8628;SDS011;4352;49.404;11.092;2023-01-19T04:47:05;31.57;;;16.23;;
8628;SDS011;4352;49.404;11.092;2023-01-19T04:49:32;30.70;;;16.07;;
8628;SDS011;4352;49.404;11.092;2023-01-19T04:52:01;29.73;;;17.00;;
8628;SDS011;4352;49.404;11.092;2023-01-19T04:54:30;30.60;;;15.50;;
8628;SDS011;4352;49.404;11.092;2023-01-19T04:56:57;31.97;;;15.70;;
8628;SDS011;4352;49.404;11.092;2023-01-19T04:59:24;30.73;;;15.57;;
8628;SDS011;4352;49.404;11.092;2023-01-19T05:01:51;33.87;;;15.57;;
8628;SDS011;4352;49.404;11.092;2023-01-19T05:04:18;32.70;;;16.07;;
8628;SDS011;4352;49.404;11.092;2023-01-19T05:06:46;27.67;;;15.73;;
8628;SDS011;4352;49.404;11.092;2023-01-19T05:09:13;29.23;;;16.10;;
8628;SDS011;4352;49.404;11.092;2023-01-19T05:11:42;32.83;;;16.70;;
8628;SDS011;4352;49.404;11.092;2023-01-19T05:14:09;33.17;;;15.90;;
8628;SDS011;4352;49.404;11.092;2023-01-19T05:16:36;34.93;;;16.43;;
8628;SDS011;4352;49.404;11.092;2023-01-19T05:19:03;30.87;;;14.93;;
8628;SDS011;4352;49.404;11.092;2023-01-19T05:21:30;34.67;;;16.90;;
8628;SDS011;4352;49.404;11.092;2023-01-19T05:23:57;38.17;;;17.87;;
8628;SDS011;4352;49.404;11.092;2023-01-19T05:26:24;41.17;;;18.80;;
8628;SDS011;4352;49.404;11.092;2023-01-19T05:28:53;45.27;;;20.30;;
8628;SDS011;4352;49.404;11.092;2023-01-19T05:31:20;41.43;;;17.90;;
8628;SDS011;4352;49.404;11.092;2023-01-19T05:33:47;42.87;;;19.53;;
8628;SDS011;4352;49.404;11.092;2023-01-19T05:36:14;42.10;;;19.77;;
8628;SDS011;4352;49.404;11.092;2023-01-19T05:38:41;36.87;;;19.40;;
8628;SDS011;4352;49.404;11.092;2023-01-19T05:41:08;41.07;;;19.10;;
8628;SDS011;4352;49.404;11.092;2023-01-19T05:43:35;37.07;;;18.70;;
8628;SDS011;4352;49.404;11.092;2023-01-19T05:46:04;38.60;;;19.07;;
8628;SDS011;4352;49.404;11.092;2023-01-19T05:48:31;42.97;;;19.20;;
8628;SDS011;4352;49.404;11.092;2023-01-19T05:50:58;32.63;;;16.50;;
8628;SDS011;4352;49.404;11.092;2023-01-19T05:53:26;34.40;;;18.17;;
8628;SDS011;4352;49.404;11.092;2023-01-19T05:55:57;31.47;;;16.67;;
8628;SDS011;4352;49.404;11.092;2023-01-19T05:58:24;37.57;;;18.73;;
8628;SDS011;4352;49.404;11.092;2023-01-19T06:00:52;37.43;;;18.03;;
8628;SDS011;4352;49.404;11.092;2023-01-19T06:03:21;33.67;;;17.83;;
8628;SDS011;4352;49.404;11.092;2023-01-19T06:05:48;34.77;;;17.80;;
8628;SDS011;4352;49.404;11.092;2023-01-19T06:08:15;36.73;;;18.30;;
8628;SDS011;4352;49.404;11.092;2023-01-19T06:10:42;33.63;;;17.93;;
8628;SDS011;4352;49.404;11.092;2023-01-19T06:13:09;37.60;;;18.40;;
8628;SDS011;4352;49.404;11.092;2023-01-19T06:15:36;32.20;;;16.57;;
8628;SDS011;4352;49.404;11.092;2023-01-19T06:18:04;34.57;;;17.63;;
8628;SDS011;4352;49.404;11.092;2023-01-19T06:20:32;33.63;;;17.17;;
8628;SDS011;4352;49.404;11.092;2023-01-19T06:22:59;37.43;;;17.97;;
8628;SDS011;4352;49.404;11.092;2023-01-19T06:25:26;37.40;;;17.73;;
8628;SDS011;4352;49.404;11.092;2023-01-19T06:27:53;31.50;;;16.90;;
8628;SDS011;4352;49.404;11.092;2023-01-19T06:30:20;31.00;;;16.20;;
8628;SDS011;4352;49.404;11.092;2023-01-19T06:32:47;34.87;;;16.63;;
8628;SDS011;4352;49.404;11.092;2023-01-19T06:35:15;31.83;;;16.70;;
8628;SDS011;4352;49.404;11.092;2023-01-19T06:37:43;32.87;;;16.17;;
8628;SDS011;4352;49.404;11.092;2023-01-19T06:40:10;32.73;;;15.27;;
8628;SDS011;4352;49.404;11.092;2023-01-19T06:42:38;34.83;;;17.97;;
8628;SDS011;4352;49.404;11.092;2023-01-19T06:45:05;34.53;;;16.67;;
8628;SDS011;4352;49.404;11.092;2023-01-19T06:47:33;37.17;;;17.07;;
8628;SDS011;4352;49.404;11.092;2023-01-19T06:50:00;34.13;;;17.47;;
8628;SDS011;4352;49.404;11.092;2023-01-19T06:52:27;41.07;;;21.13;;
8628;SDS011;4352;49.404;11.092;2023-01-19T06:54:56;41.87;;;20.10;;
8628;SDS011;4352;49.404;11.092;2023-01-19T06:57:23;33.73;;;17.33;;
8628;SDS011;4352;49.404;11.092;2023-01-19T06:59:50;39.63;;;17.83;;
8628;SDS011;4352;49.404;11.092;2023-01-19T07:02:17;33.63;;;17.13;;
8628;SDS011;4352;49.404;11.092;2023-01-19T07:04:46;30.17;;;16.47;;
8628;SDS011;4352;49.404;11.092;2023-01-19T07:07:15;29.77;;;16.40;;
8628;SDS011;4352;49.404;11.092;2023-01-19T07:09:42;33.47;;;16.57;;
8628;SDS011;4352;49.404;11.092;2023-01-19T07:12:10;35.33;;;17.67;;
8628;SDS011;4352;49.404;11.092;2023-01-19T07:14:37;34.00;;;17.83;;
8628;SDS011;4352;49.404;11.092;2023-01-19T07:17:05;29.77;;;16.47;;
8628;SDS011;4352;49.404;11.092;2023-01-19T07:19:32;33.93;;;16.80;;
8628;SDS011;4352;49.404;11.092;2023-01-19T07:22:00;34.47;;;17.20;;
8628;SDS011;4352;49.404;11.092;2023-01-19T07:24:27;34.87;;;16.27;;
8628;SDS011;4352;49.404;11.092;2023-01-19T07:26:57;32.10;;;15.70;;
8628;SDS011;4352;49.404;11.092;2023-01-19T07:29:26;30.43;;;16.43;;
8628;SDS011;4352;49.404;11.092;2023-01-19T07:31:53;28.63;;;15.03;;
8628;SDS011;4352;49.404;11.092;2023-01-19T07:34:20;32.00;;;16.50;;
8628;SDS011;4352;49.404;11.092;2023-01-19T07:36:47;32.13;;;17.40;;
8628;SDS011;4352;49.404;11.092;2023-01-19T07:39:14;35.07;;;16.83;;
8628;SDS011;4352;49.404;11.092;2023-01-19T07:41:41;28.77;;;16.40;;
8628;SDS011;4352;49.404;11.092;2023-01-19T07:44:08;29.53;;;16.10;;
8628;SDS011;4352;49.404;11.092;2023-01-19T07:46:37;29.47;;;16.17;;
8628;SDS011;4352;49.404;11.092;2023-01-19T07:49:04;33.73;;;17.23;;
8628;SDS011;4352;49.404;11.092;2023-01-19T07:51:31;30.83;;;15.67;;
8628;SDS011;4352;49.404;11.092;2023-01-19T07:53:58;36.37;;;17.13;;
8628;SDS011;4352;49.404;11.092;2023-01-19T07:56:25;31.63;;;17.27;;
8628;SDS011;4352;49.404;11.092;2023-01-19T07:58:54;29.70;;;15.90;;
8628;SDS011;4352;49.404;11.092;2023-01-19T08:01:21;31.70;;;16.37;;
8628;SDS011;4352;49.404;11.092;2023-01-19T08:03:50;27.97;;;16.43;;
8628;SDS011;4352;49.404;11.092;2023-01-19T08:06:18;32.73;;;16.73;;
8628;SDS011;4352;49.404;11.092;2023-01-19T08:08:46;33.50;;;17.07;;
8628;SDS011;4352;49.404;11.092;2023-01-19T08:11:13;30.50;;;14.93;;
8628;SDS011;4352;49.404;11.092;2023-01-19T08:13:40;29.77;;;16.43;;
8628;SDS011;4352;49.404;11.092;2023-01-19T08:16:07;29.90;;;14.80;;
8628;SDS011;4352;49.404;11.092;2023-01-19T08:18:34;25.63;;;15.23;;
8628;SDS011;4352;49.404;11.092;2023-01-19T08:21:03;27.60;;;15.30;;
8628;SDS011;4352;49.404;11.092;2023-01-19T08:23:30;27.33;;;15.63;;
8628;SDS011;4352;49.404;11.092;2023-01-19T08:25:57;29.80;;;15.47;;
8628;SDS011;4352;49.404;11.092;2023-01-19T08:28:24;28.30;;;15.07;;
8628;SDS011;4352;49.404;11.092;2023-01-19T08:30:51;25.87;;;14.93;;
8628;SDS011;4352;49.404;11.092;2023-01-19T08:33:19;29.97;;;15.00;;
8628;SDS011;4352;49.404;11.092;2023-01-19T08:35:47;28.17;;;15.27;;
8628;SDS011;4352;49.404;11.092;2023-01-19T08:38:16;26.73;;;15.87;;
8628;SDS011;4352;49.404;11.092;2023-01-19T08:40:43;28.03;;;15.63;;
8628;SDS011;4352;49.404;11.092;2023-01-19T08:43:11;26.73;;;15.63;;
8628;SDS011;4352;49.404;11.092;2023-01-19T08:45:39;31.90;;;16.37;;
8628;SDS011;4352;49.404;11.092;2023-01-19T08:48:12;24.37;;;15.43;;
8628;SDS011;4352;49.404;11.092;2023-01-19T08:50:40;22.63;;;14.30;;
8628;SDS011;4352;49.404;11.092;2023-01-19T08:53:07;23.87;;;14.77;;
8628;SDS011;4352;49.404;11.092;2023-01-19T08:55:35;28.60;;;14.77;;
8628;SDS011;4352;49.404;11.092;2023-01-19T08:58:03;24.67;;;14.87;;
8628;SDS011;4352;49.404;11.092;2023-01-19T09:00:32;26.37;;;16.33;;
8628;SDS011;4352;49.404;11.092;2023-01-19T09:03:01;41.93;;;19.50;;
8628;SDS011;4352;49.404;11.092;2023-01-19T09:05:29;48.30;;;20.40;;
8628;SDS011;4352;49.404;11.092;2023-01-19T09:07:59;34.90;;;17.93;;
8628;SDS011;4352;49.404;11.092;2023-01-19T09:10:26;26.13;;;14.83;;
8628;SDS011;4352;49.404;11.092;2023-01-19T09:12:56;30.30;;;16.07;;
8628;SDS011;4352;49.404;11.092;2023-01-19T09:15:23;28.80;;;14.37;;
8628;SDS011;4352;49.404;11.092;2023-01-19T09:17:51;24.57;;;15.33;;
8628;SDS011;4352;49.404;11.092;2023-01-19T09:20:18;21.87;;;12.47;;
8628;SDS011;4352;49.404;11.092;2023-01-19T09:22:45;18.93;;;10.90;;
8628;SDS011;4352;49.404;11.092;2023-01-19T09:25:12;19.90;;;10.97;;
8628;SDS011;4352;49.404;11.092;2023-01-19T09:27:39;13.70;;;8.30;;
8628;SDS011;4352;49.404;11.092;2023-01-19T09:30:08;10.33;;;7.50;;
8628;SDS011;4352;49.404;11.092;2023-01-19T09:32:35;11.47;;;7.23;;
8628;SDS011;4352;49.404;11.092;2023-01-19T09:35:02;9.90;;;7.23;;
8628;SDS011;4352;49.404;11.092;2023-01-19T09:37:30;11.63;;;6.33;;
8628;SDS011;4352;49.404;11.092;2023-01-19T09:39:57;11.67;;;6.83;;
8628;SDS011;4352;49.404;11.092;2023-01-19T09:42:25;9.63;;;6.20;;
8628;SDS011;4352;49.404;11.092;2023-01-19T09:44:55;8.80;;;6.00;;
8628;SDS011;4352;49.404;11.092;2023-01-19T09:47:25;8.80;;;6.00;;
8628;SDS011;4352;49.404;11.092;2023-01-19T09:49:55;8.53;;;5.80;;
8628;SDS011;4352;49.404;11.092;2023-01-19T09:52:24;11.33;;;6.93;;
8628;SDS011;4352;49.404;11.092;2023-01-19T09:54:51;16.53;;;8.63;;
8628;SDS011;4352;49.404;11.092;2023-01-19T09:57:19;11.60;;;7.73;;
8628;SDS011;4352;49.404;11.092;2023-01-19T09:59:47;7.77;;;4.93;;
8628;SDS011;4352;49.404;11.092;2023-01-19T10:02:21;12.30;;;7.83;;
8628;SDS011;4352;49.404;11.092;2023-01-19T10:04:56;8.10;;;6.10;;
8628;SDS011;4352;49.404;11.092;2023-01-19T10:07:29;8.40;;;5.60;;
8628;SDS011;4352;49.404;11.092;2023-01-19T10:10:03;7.73;;;4.53;;
8628;SDS011;4352;49.404;11.092;2023-01-19T10:12:36;7.57;;;5.23;;
8628;SDS011;4352;49.404;11.092;2023-01-19T10:15:10;8.13;;;5.10;;
8628;SDS011;4352;49.404;11.092;2023-01-19T10:17:42;8.20;;;5.57;;
8628;SDS011;4352;49.404;11.092;2023-01-19T10:20:21;6.97;;;5.30;;
8628;SDS011;4352;49.404;11.092;2023-01-19T10:22:51;7.47;;;5.40;;
8628;SDS011;4352;49.404;11.092;2023-01-19T10:25:19;7.47;;;5.50;;
8628;SDS011;4352;49.404;11.092;2023-01-19T10:27:48;9.53;;;5.77;;
8628;SDS011;4352;49.404;11.092;2023-01-19T10:30:15;9.13;;;5.90;;
8628;SDS011;4352;49.404;11.092;2023-01-19T10:32:46;8.97;;;5.10;;
8628;SDS011;4352;49.404;11.092;2023-01-19T10:35:14;7.23;;;4.53;;
8628;SDS011;4352;49.404;11.092;2023-01-19T10:37:47;8.23;;;5.07;;
8628;SDS011;4352;49.404;11.092;2023-01-19T10:40:16;9.43;;;5.80;;
8628;SDS011;4352;49.404;11.092;2023-01-19T10:42:45;6.97;;;5.10;;
8628;SDS011;4352;49.404;11.092;2023-01-19T10:45:13;9.63;;;5.73;;
8628;SDS011;4352;49.404;11.092;2023-01-19T10:47:41;9.33;;;5.30;;
8628;SDS011;4352;49.404;11.092;2023-01-19T10:50:21;10.20;;;5.13;;
8628;SDS011;4352;49.404;11.092;2023-01-19T10:52:50;16.77;;;8.27;;
8628;SDS011;4352;49.404;11.092;2023-01-19T10:55:24;11.63;;;6.23;;
8628;SDS011;4352;49.404;11.092;2023-01-19T10:57:52;10.17;;;5.80;;
8628;SDS011;4352;49.404;11.092;2023-01-19T11:00:30;8.30;;;5.57;;
8628;SDS011;4352;49.404;11.092;2023-01-19T11:02:57;8.87;;;5.50;;
8628;SDS011;4352;49.404;11.092;2023-01-19T11:05:25;14.13;;;5.67;;
8628;SDS011;4352;49.404;11.092;2023-01-19T11:07:54;13.33;;;5.53;;
8628;SDS011;4352;49.404;11.092;2023-01-19T11:10:22;10.57;;;5.53;;
8628;SDS011;4352;49.404;11.092;2023-01-19T11:12:54;8.70;;;5.80;;
8628;SDS011;4352;49.404;11.092;2023-01-19T11:15:22;9.73;;;5.70;;
8628;SDS011;4352;49.404;11.092;2023-01-19T11:17:49;7.77;;;5.60;;
8628;SDS011;4352;49.404;11.092;2023-01-19T11:20:18;10.43;;;5.73;;
8628;SDS011;4352;49.404;11.092;2023-01-19T11:22:46;7.83;;;5.13;;
8628;SDS011;4352;49.404;11.092;2023-01-19T11:25:29;4.90;;;4.03;;
8628;SDS011;4352;49.404;11.092;2023-01-19T11:27:57;6.00;;;3.80;;
8628;SDS011;4352;49.404;11.092;2023-01-19T11:30:24;6.07;;;4.20;;
8628;SDS011;4352;49.404;11.092;2023-01-19T11:32:52;9.17;;;4.30;;
8628;SDS011;4352;49.404;11.092;2023-01-19T11:35:34;6.03;;;3.90;;
8628;SDS011;4352;49.404;11.092;2023-01-19T11:40:53;6.07;;;4.10;;
8628;SDS011;4352;49.404;11.092;2023-01-19T11:43:21;5.47;;;3.67;;
8628;SDS011;4352;49.404;11.092;2023-01-19T11:45:48;10.20;;;4.23;;
8628;SDS011;4352;49.404;11.092;2023-01-19T11:48:18;6.30;;;4.23;;
8628;SDS011;4352;49.404;11.092;2023-01-19T11:50:48;5.57;;;3.60;;
8628;SDS011;4352;49.404;11.092;2023-01-19T11:53:16;5.00;;;3.70;;
8628;SDS011;4352;49.404;11.092;2023-01-19T11:55:46;7.43;;;4.50;;
8628;SDS011;4352;49.404;11.092;2023-01-19T11:58:16;9.17;;;4.30;;
8628;SDS011;4352;49.404;11.092;2023-01-19T12:00:44;6.97;;;3.63;;
8628;SDS011;4352;49.404;11.092;2023-01-19T12:03:13;6.40;;;4.33;;
8628;SDS011;4352;49.404;11.092;2023-01-19T12:05:43;7.27;;;4.77;;
8628;SDS011;4352;49.404;11.092;2023-01-19T12:08:11;6.10;;;3.80;;
8628;SDS011;4352;49.404;11.092;2023-01-19T12:10:40;10.40;;;5.23;;
8628;SDS011;4352;49.404;11.092;2023-01-19T12:13:13;10.07;;;4.97;;
8628;SDS011;4352;49.404;11.092;2023-01-19T12:15:45;6.00;;;4.37;;
8628;SDS011;4352;49.404;11.092;2023-01-19T12:18:15;12.73;;;4.37;;
8628;SDS011;4352;49.404;11.092;2023-01-19T12:20:45;5.17;;;3.67;;
8628;SDS011;4352;49.404;11.092;2023-01-19T12:23:16;10.23;;;4.73;;
8628;SDS011;4352;49.404;11.092;2023-01-19T12:25:51;6.10;;;4.27;;
8628;SDS011;4352;49.404;11.092;2023-01-19T12:28:20;9.83;;;4.40;;
8628;SDS011;4352;49.404;11.092;2023-01-19T12:30:50;6.33;;;4.47;;
8628;SDS011;4352;49.404;11.092;2023-01-19T12:33:21;8.03;;;4.03;;
8628;SDS011;4352;49.404;11.092;2023-01-19T12:35:52;6.67;;;3.97;;
8628;SDS011;4352;49.404;11.092;2023-01-19T12:38:28;7.40;;;4.60;;
8628;SDS011;4352;49.404;11.092;2023-01-19T12:44:13;8.77;;;4.73;;
8628;SDS011;4352;49.404;11.092;2023-01-19T12:46:44;7.70;;;3.93;;
8628;SDS011;4352;49.404;11.092;2023-01-19T12:49:21;6.33;;;3.93;;
8628;SDS011;4352;49.404;11.092;2023-01-19T12:51:50;5.03;;;3.77;;
8628;SDS011;4352;49.404;11.092;2023-01-19T12:54:19;8.73;;;3.40;;
8628;SDS011;4352;49.404;11.092;2023-01-19T12:56:48;5.13;;;3.17;;
8628;SDS011;4352;49.404;11.092;2023-01-19T12:59:21;5.37;;;3.80;;
8628;SDS011;4352;49.404;11.092;2023-01-19T13:04:32;5.33;;;3.00;;
8628;SDS011;4352;49.404;11.092;2023-01-19T13:07:06;5.38;;;3.50;;
8628;SDS011;4352;49.404;11.092;2023-01-19T13:09:35;9.70;;;3.77;;
8628;SDS011;4352;49.404;11.092;2023-01-19T13:12:09;7.60;;;3.40;;
8628;SDS011;4352;49.404;11.092;2023-01-19T13:14:37;4.97;;;3.40;;
8628;SDS011;4352;49.404;11.092;2023-01-19T13:19:55;5.37;;;3.40;;
8628;SDS011;4352;49.404;11.092;2023-01-19T13:25:10;5.90;;;3.67;;
8628;SDS011;4352;49.404;11.092;2023-01-19T13:27:37;5.13;;;3.60;;
8628;SDS011;4352;49.404;11.092;2023-01-19T13:30:09;5.30;;;3.63;;
8628;SDS011;4352;49.404;11.092;2023-01-19T13:32:39;6.10;;;3.97;;
8628;SDS011;4352;49.404;11.092;2023-01-19T13:35:11;7.60;;;3.70;;
8628;SDS011;4352;49.404;11.092;2023-01-19T13:37:39;8.20;;;4.63;;
8628;SDS011;4352;49.404;11.092;2023-01-19T13:40:13;6.40;;;4.27;;
8628;SDS011;4352;49.404;11.092;2023-01-19T13:42:41;13.77;;;7.30;;
8628;SDS011;4352;49.404;11.092;2023-01-19T13:45:14;6.23;;;4.30;;
8628;SDS011;4352;49.404;11.092;2023-01-19T13:47:44;12.40;;;6.67;;
8628;SDS011;4352;49.404;11.092;2023-01-19T13:50:18;6.23;;;4.30;;
8628;SDS011;4352;49.404;11.092;2023-01-19T13:52:46;8.27;;;5.03;;
8628;SDS011;4352;49.404;11.092;2023-01-19T13:55:15;12.77;;;7.63;;
8628;SDS011;4352;49.404;11.092;2023-01-19T13:57:44;12.23;;;7.03;;
8628;SDS011;4352;49.404;11.092;2023-01-19T14:00:16;9.57;;;4.50;;
8628;SDS011;4352;49.404;11.092;2023-01-19T14:02:51;5.63;;;4.30;;
8628;SDS011;4352;49.404;11.092;2023-01-19T14:05:22;6.53;;;4.73;;
8628;SDS011;4352;49.404;11.092;2023-01-19T14:08:00;10.70;;;5.27;;
8628;SDS011;4352;49.404;11.092;2023-01-19T14:10:27;7.47;;;4.73;;
8628;SDS011;4352;49.404;11.092;2023-01-19T14:12:58;6.37;;;4.47;;
8628;SDS011;4352;49.404;11.092;2023-01-19T14:15:27;9.03;;;4.57;;
8628;SDS011;4352;49.404;11.092;2023-01-19T14:18:19;8.67;;;4.50;;
8628;SDS011;4352;49.404;11.092;2023-01-19T14:20:54;8.57;;;4.77;;
8628;SDS011;4352;49.404;11.092;2023-01-19T14:23:34;9.63;;;5.40;;
8628;SDS011;4352;49.404;11.092;2023-01-19T14:26:01;8.57;;;4.67;;
8628;SDS011;4352;49.404;11.092;2023-01-19T14:28:32;7.33;;;4.57;;
8628;SDS011;4352;49.404;11.092;2023-01-19T14:31:16;10.17;;;5.87;;
8628;SDS011;4352;49.404;11.092;2023-01-19T14:33:44;9.83;;;5.60;;
8628;SDS011;4352;49.404;11.092;2023-01-19T14:36:21;8.97;;;5.23;;
8628;SDS011;4352;49.404;11.092;2023-01-19T14:38:51;8.10;;;5.07;;
8628;SDS011;4352;49.404;11.092;2023-01-19T14:41:22;9.90;;;6.20;;
8628;SDS011;4352;49.404;11.092;2023-01-19T14:43:50;15.40;;;6.83;;
8628;SDS011;4352;49.404;11.092;2023-01-19T14:46:19;10.40;;;5.67;;
8628;SDS011;4352;49.404;11.092;2023-01-19T14:48:47;12.03;;;5.17;;
8628;SDS011;4352;49.404;11.092;2023-01-19T14:51:15;8.00;;;4.50;;
8628;SDS011;4352;49.404;11.092;2023-01-19T14:53:46;9.00;;;5.13;;
8628;SDS011;4352;49.404;11.092;2023-01-19T14:56:22;8.03;;;4.97;;
8628;SDS011;4352;49.404;11.092;2023-01-19T14:58:50;9.50;;;5.30;;
8628;SDS011;4352;49.404;11.092;2023-01-19T15:01:17;7.90;;;4.93;;
8628;SDS011;4352;49.404;11.092;2023-01-19T15:03:44;7.73;;;5.07;;
8628;SDS011;4352;49.404;11.092;2023-01-19T15:06:11;12.27;;;6.17;;
8628;SDS011;4352;49.404;11.092;2023-01-19T15:08:39;9.37;;;5.47;;